Time;durP1;ratioP1;P1;durP2;ratioP2;P2;SDS_P1;SDS_P2;PMS_P1;PMS_P2;Temp;Humidity;BMP_temperature;BMP_pressure;BME280_temperature;BME280_humidity;BME280_pressure;Samples;Min_cycle;Max_cycle;Signal;HPM_P1;HPM_P2
2022/01/01 00:02:11;;;;;;;1.23;1.03;;;12.00;99.90;;;;;;5066906;28;20742;-83
2022/01/01 00:04:37;;;;;;;1.47;1.37;;;12.00;99.90;;;;;;5068721;28;20177;-83
2022/01/01 00:07:03;;;;;;;1.90;1.33;;;12.00;99.90;;;;;;5064402;28;20189;-84
2022/01/01 00:09:28;;;;;;;1.23;1.13;;;12.00;99.90;;;;;;5065369;28;20589;-83
2022/01/01 00:11:54;;;;;;;0.37;0.30;;;11.90;99.90;;;;;;5069386;28;20189;-84
2022/01/01 00:14:19;;;;;;;0.90;0.90;;;11.80;99.90;;;;;;5065873;28;20189;-83
2022/01/01 00:16:45;;;;;;;0.47;0.47;;;11.70;99.90;;;;;;5064116;28;20181;-84
2022/01/01 00:19:10;;;;;;;0.77;0.77;;;11.80;99.90;;;;;;5067588;28;20188;-83
2022/01/01 00:21:36;;;;;;;1.33;1.03;;;11.80;99.90;;;;;;5066048;28;20715;-83
2022/01/01 00:24:02;;;;;;;1.57;1.43;;;11.80;99.90;;;;;;5063841;28;20197;-83
2022/01/01 00:26:27;;;;;;;0.83;0.63;;;11.80;99.90;;;;;;5066124;28;20232;-84
2022/01/01 00:28:53;;;;;;;1.37;0.80;;;11.80;99.90;;;;;;5068270;28;20181;-83
2022/01/01 00:31:18;;;;;;;1.63;1.00;;;11.80;99.90;;;;;;5063486;28;20587;-84
2022/01/01 00:33:44;;;;;;;0.70;0.70;;;11.70;99.90;;;;;;5067308;28;20205;-84
2022/01/01 00:36:10;;;;;;;1.13;1.03;;;11.80;99.90;;;;;;5063964;28;20185;-83
2022/01/01 00:38:35;;;;;;;0.60;0.60;;;11.70;99.90;;;;;;5068413;28;20184;-84
2022/01/01 00:41:01;;;;;;;0.50;0.50;;;11.80;99.90;;;;;;5068358;28;20542;-83
2022/01/01 00:43:26;;;;;;;0.80;0.80;;;11.80;99.90;;;;;;5066292;28;20205;-84
2022/01/01 00:45:52;;;;;;;0.73;0.40;;;11.90;99.90;;;;;;5069797;28;20218;-84
2022/01/01 00:48:18;;;;;;;2.70;0.80;;;12.00;99.90;;;;;;5070546;28;20255;-83
2022/01/01 00:50:43;;;;;;;0.47;0.47;;;12.00;99.90;;;;;;5070756;28;20732;-84
2022/01/01 00:53:09;;;;;;;0.53;0.53;;;12.00;99.90;;;;;;5069845;28;20268;-84
2022/01/01 00:55:35;;;;;;;0.83;0.83;;;12.10;99.90;;;;;;5068695;28;20189;-84
2022/01/01 00:58:01;;;;;;;1.23;1.10;;;12.10;99.90;;;;;;5066101;28;20213;-84
2022/01/01 01:00:26;;;;;;;1.27;1.17;;;12.10;99.90;;;;;;5061802;28;20224;-84
2022/01/01 01:02:52;;;;;;;0.47;0.47;;;12.10;99.90;;;;;;5066683;28;20208;-84
2022/01/01 01:05:17;;;;;;;1.13;0.90;;;12.10;99.90;;;;;;5064937;28;20184;-84
2022/01/01 01:07:43;;;;;;;0.70;0.70;;;12.10;99.90;;;;;;5072165;28;20204;-83
2022/01/01 01:10:09;;;;;;;0.77;0.77;;;12.10;99.90;;;;;;5071928;28;20204;-83
2022/01/01 01:12:44;;;;;;;0.63;0.63;;;12.10;99.90;;;;;;5067372;28;20227;-84
2022/01/01 01:15:17;;;;;;;1.27;0.90;;;12.00;99.90;;;;;;5072388;28;20184;-83
2022/01/01 01:17:47;;;;;;;2.03;1.60;;;12.00;99.90;;;;;;5071629;28;20246;-84
2022/01/01 01:20:13;;;;;;;1.77;1.07;;;12.00;99.90;;;;;;5065180;28;20184;-84
2022/01/01 01:22:38;;;;;;;0.80;0.80;;;12.00;99.90;;;;;;5068921;28;20681;-84
2022/01/01 01:25:04;;;;;;;2.90;1.23;;;12.00;99.90;;;;;;5066880;28;20185;-83
2022/01/01 01:27:30;;;;;;;1.13;0.70;;;12.00;99.90;;;;;;5066661;28;20197;-84
2022/01/01 01:29:59;;;;;;;0.90;0.90;;;11.90;99.90;;;;;;5071328;28;20255;-83
2022/01/01 01:32:25;;;;;;;0.60;0.60;;;12.00;99.90;;;;;;5068490;28;20210;-82
2022/01/01 01:34:50;;;;;;;0.60;0.60;;;12.00;99.90;;;;;;5070025;28;20196;-84
2022/01/01 01:37:16;;;;;;;0.97;0.87;;;12.00;99.90;;;;;;5066316;28;20185;-83
2022/01/01 01:39:41;;;;;;;0.47;0.47;;;12.00;99.90;;;;;;5063199;28;20210;-84
2022/01/01 01:42:07;;;;;;;0.87;0.73;;;12.00;99.90;;;;;;5064751;28;20201;-83
2022/01/01 01:44:42;;;;;;;0.97;0.97;;;12.00;99.90;;;;;;5069233;28;20578;-84
2022/01/01 01:47:14;;;;;;;0.63;0.63;;;11.90;99.90;;;;;;5067593;28;20176;-83
2022/01/01 01:49:41;;;;;;;0.93;0.93;;;11.90;99.90;;;;;;5068572;28;20686;-84
2022/01/01 01:52:08;;;;;;;2.13;1.53;;;11.90;99.90;;;;;;5068626;28;20192;-83
2022/01/01 01:54:34;;;;;;;0.77;0.77;;;11.90;99.90;;;;;;5059711;28;20601;-83
2022/01/01 01:57:00;;;;;;;2.07;0.97;;;12.00;99.90;;;;;;5063079;28;20263;-84
2022/01/01 01:59:25;;;;;;;0.60;0.50;;;12.00;99.90;;;;;;5064442;28;20286;-84
2022/01/01 02:01:52;;;;;;;0.43;0.43;;;12.00;99.90;;;;;;5063103;28;20184;-83
2022/01/01 02:04:18;;;;;;;0.30;0.30;;;12.00;99.90;;;;;;5063117;28;20200;-83
2022/01/01 02:06:44;;;;;;;0.80;0.70;;;12.00;99.90;;;;;;5063707;28;20870;-83
2022/01/01 02:09:11;;;;;;;0.40;0.40;;;12.10;99.90;;;;;;5066705;28;20189;-83
2022/01/01 02:11:41;;;;;;;0.60;0.60;;;12.10;99.90;;;;;;5064210;28;20188;-84
2022/01/01 02:14:17;;;;;;;0.40;0.40;;;12.10;99.90;;;;;;5065764;28;20231;-84
2022/01/01 02:19:22;;;;;;;1.13;1.03;;;12.20;99.90;;;;;;5069393;28;20172;-84
2022/01/01 02:21:48;;;;;;;1.23;1.23;;;12.20;99.90;;;;;;5065654;28;20180;-83
2022/01/01 02:24:13;;;;;;;0.73;0.50;;;12.20;99.90;;;;;;5067048;28;20196;-82
2022/01/01 02:26:39;;;;;;;0.70;0.70;;;12.10;99.90;;;;;;5066114;28;20226;-84
2022/01/01 02:29:05;;;;;;;0.50;0.50;;;12.10;99.90;;;;;;5064931;28;20209;-83
2022/01/01 02:31:34;;;;;;;0.63;0.63;;;12.10;99.90;;;;;;5067996;28;20292;-83
2022/01/01 02:34:07;;;;;;;3.10;0.53;;;12.00;99.90;;;;;;5067204;28;20201;-83
2022/01/01 02:36:39;;;;;;;0.43;0.37;;;12.00;99.90;;;;;;5064218;28;20190;-84
2022/01/01 02:39:15;;;;;;;0.10;0.10;;;12.10;99.90;;;;;;5066936;28;20181;-83
2022/01/01 02:41:45;;;;;;;0.97;0.80;;;12.00;99.90;;;;;;5067603;28;20794;-84
2022/01/01 02:44:12;;;;;;;0.40;0.40;;;12.00;99.90;;;;;;5061614;28;20702;-83
2022/01/01 02:46:37;;;;;;;2.17;0.53;;;11.90;99.90;;;;;;5066250;28;20185;-82
2022/01/01 02:49:04;;;;;;;0.27;0.27;;;12.00;99.90;;;;;;5066158;28;20189;-84
2022/01/01 02:51:30;;;;;;;0.73;0.47;;;11.90;99.90;;;;;;5067226;28;20905;-83
2022/01/01 02:53:56;;;;;;;4.57;0.30;;;11.90;99.90;;;;;;5073337;28;20208;-83
2022/01/01 02:56:22;;;;;;;0.37;0.30;;;11.80;99.90;;;;;;5078790;28;20178;-84
2022/01/01 02:58:48;;;;;;;0.30;0.30;;;11.80;99.90;;;;;;5076363;28;20247;-84
2022/01/01 03:01:13;;;;;;;0.30;0.30;;;11.70;99.90;;;;;;5081232;28;20199;-84
2022/01/01 03:03:39;;;;;;;0.90;0.37;;;11.60;99.90;;;;;;5077433;28;20242;-83
2022/01/01 03:06:05;;;;;;;0.63;0.63;;;11.50;99.90;;;;;;5081592;28;20188;-84
2022/01/01 03:08:30;;;;;;;1.40;0.73;;;11.60;99.90;;;;;;5068801;28;20675;-84
2022/01/01 03:10:56;;;;;;;0.30;0.30;;;11.60;99.90;;;;;;5067313;28;20234;-83
2022/01/01 03:13:21;;;;;;;0.10;0.10;;;11.70;99.90;;;;;;5067396;28;20212;-84
2022/01/01 03:15:47;;;;;;;0.60;0.57;;;11.70;99.90;;;;;;5070014;28;20193;-83
2022/01/01 03:18:13;;;;;;;0.57;0.57;;;11.70;99.90;;;;;;5067350;28;20189;-84
2022/01/01 03:20:39;;;;;;;0.50;0.50;;;11.70;99.90;;;;;;5066321;28;20204;-84
2022/01/01 03:23:05;;;;;;;0.50;0.50;;;11.80;99.90;;;;;;5063198;28;20633;-84
2022/01/01 03:25:30;;;;;;;0.33;0.33;;;11.70;99.90;;;;;;5063775;28;20185;-84
2022/01/01 03:27:56;;;;;;;0.50;0.50;;;11.80;99.90;;;;;;5065158;28;20185;-83
2022/01/01 03:30:22;;;;;;;0.43;0.43;;;11.80;99.90;;;;;;5064265;28;20212;-83
2022/01/01 03:32:47;;;;;;;0.60;0.53;;;11.70;99.90;;;;;;5068547;28;20201;-84
2022/01/01 03:35:13;;;;;;;0.40;0.40;;;11.70;99.90;;;;;;5064858;28;20199;-84
2022/01/01 03:37:39;;;;;;;0.20;0.20;;;11.80;99.90;;;;;;5064698;28;20209;-84
2022/01/01 03:40:06;;;;;;;0.20;0.20;;;11.90;99.90;;;;;;5064332;28;20214;-84
2022/01/01 03:42:32;;;;;;;0.87;0.20;;;12.00;99.90;;;;;;5059302;28;20204;-84
2022/01/01 03:44:57;;;;;;;0.60;0.60;;;12.00;99.90;;;;;;5065996;28;20733;-83
2022/01/01 03:47:23;;;;;;;0.40;0.40;;;12.00;99.90;;;;;;5067913;28;20185;-84
2022/01/01 03:49:49;;;;;;;0.40;0.30;;;12.10;99.90;;;;;;5063795;28;20686;-84
2022/01/01 03:52:15;;;;;;;0.80;0.53;;;12.00;99.90;;;;;;5062058;28;20212;-83
2022/01/01 03:54:41;;;;;;;0.20;0.20;;;12.00;99.90;;;;;;5065667;28;20272;-84
2022/01/01 03:57:07;;;;;;;0.30;0.30;;;12.10;99.90;;;;;;5065791;28;20331;-84
2022/01/01 03:59:33;;;;;;;0.20;0.20;;;12.10;99.90;;;;;;5065776;28;20249;-83
2022/01/01 04:01:58;;;;;;;0.20;0.20;;;12.20;99.90;;;;;;5062052;28;20264;-84
2022/01/01 04:04:25;;;;;;;0.50;0.40;;;12.20;99.90;;;;;;5063282;28;20231;-84
2022/01/01 04:06:51;;;;;;;0.43;0.43;;;12.20;99.90;;;;;;5068873;28;20213;-84
2022/01/01 04:09:17;;;;;;;0.30;0.30;;;12.20;99.90;;;;;;5067354;28;20561;-83
2022/01/01 04:11:43;;;;;;;0.33;0.33;;;12.20;99.90;;;;;;5069465;28;20187;-84
2022/01/01 04:14:14;;;;;;;2.67;0.60;;;12.30;99.90;;;;;;5068796;28;20209;-84
2022/01/01 04:16:40;;;;;;;0.30;0.30;;;12.30;99.90;;;;;;5065834;28;20215;-84
2022/01/01 04:19:07;;;;;;;0.90;0.23;;;12.30;99.90;;;;;;5071701;28;20607;-83
2022/01/01 04:21:33;;;;;;;0.17;0.17;;;12.30;99.90;;;;;;5070061;28;20600;-84
2022/01/01 04:24:05;;;;;;;0.40;0.40;;;12.30;99.90;;;;;;5071137;28;20208;-84
2022/01/01 04:26:30;;;;;;;0.40;0.40;;;12.30;99.90;;;;;;5070680;28;20212;-84
2022/01/01 04:28:56;;;;;;;0.53;0.53;;;12.30;99.90;;;;;;5069310;28;20197;-84
2022/01/01 04:31:22;;;;;;;0.40;0.40;;;12.30;99.90;;;;;;5064827;28;20204;-83
2022/01/01 04:33:47;;;;;;;0.37;0.33;;;12.30;99.90;;;;;;5070817;28;20263;-84
2022/01/01 04:36:16;;;;;;;0.10;0.10;;;12.30;99.90;;;;;;5070728;28;20181;-83
2022/01/01 04:38:44;;;;;;;0.37;0.37;;;12.30;99.90;;;;;;5068356;28;20191;-84
2022/01/01 04:41:15;;;;;;;0.70;0.60;;;12.40;99.90;;;;;;5064049;28;20186;-83
2022/01/01 04:43:41;;;;;;;0.30;0.30;;;12.40;99.90;;;;;;5069564;28;20295;-84
2022/01/01 04:46:08;;;;;;;1.00;0.43;;;12.30;99.90;;;;;;5069091;28;20637;-84
2022/01/01 04:48:37;;;;;;;0.47;0.43;;;12.30;99.90;;;;;;5068605;28;20204;-83
2022/01/01 04:51:10;;;;;;;0.30;0.30;;;12.30;99.90;;;;;;5068656;28;20201;-84
2022/01/01 04:53:39;;;;;;;0.47;0.40;;;12.30;99.90;;;;;;5067975;28;20197;-83
2022/01/01 04:56:07;;;;;;;0.40;0.40;;;12.20;99.90;;;;;;5068891;28;20254;-84
2022/01/01 04:58:33;;;;;;;0.67;0.67;;;12.20;99.90;;;;;;5069264;28;20193;-84
2022/01/01 05:00:59;;;;;;;1.37;0.50;;;12.20;99.90;;;;;;5069601;28;20201;-84
2022/01/01 05:03:24;;;;;;;0.70;0.60;;;12.20;99.90;;;;;;5066791;28;20205;-84
2022/01/01 05:05:50;;;;;;;0.40;0.40;;;12.20;99.90;;;;;;5069252;28;21265;-83
2022/01/01 05:08:18;;;;;;;0.50;0.50;;;12.30;99.90;;;;;;5070217;28;20188;-83
2022/01/01 05:10:43;;;;;;;1.80;0.40;;;12.20;99.90;;;;;;5059411;28;20212;-83
2022/01/01 05:13:09;;;;;;;1.37;0.60;;;12.20;99.90;;;;;;5064815;28;20260;-83
2022/01/01 05:15:34;;;;;;;0.83;0.50;;;12.20;99.90;;;;;;5067355;28;20181;-84
2022/01/01 05:18:00;;;;;;;0.40;0.40;;;12.10;99.90;;;;;;5066717;28;20654;-84
2022/01/01 05:20:27;;;;;;;2.00;0.83;;;12.10;99.90;;;;;;5064698;28;20184;-84
2022/01/01 05:22:52;;;;;;;1.50;0.60;;;12.10;99.90;;;;;;5064041;28;20299;-84
2022/01/01 05:25:18;;;;;;;2.40;1.07;;;12.00;99.90;;;;;;5068366;28;20279;-84
2022/01/01 05:27:44;;;;;;;0.80;0.80;;;12.00;99.90;;;;;;5059463;28;20185;-84
2022/01/01 05:30:13;;;;;;;0.63;0.63;;;12.00;99.90;;;;;;5068591;28;20201;-83
2022/01/01 05:32:39;;;;;;;1.13;1.13;;;12.00;99.90;;;;;;5064578;28;20197;-83
2022/01/01 05:35:05;;;;;;;0.40;0.40;;;11.90;99.90;;;;;;5066663;28;20190;-84
2022/01/01 05:37:31;;;;;;;0.83;0.83;;;11.90;99.90;;;;;;5067380;28;20272;-84
2022/01/01 05:39:57;;;;;;;0.70;0.70;;;11.90;99.90;;;;;;5062914;28;20287;-83
2022/01/01 05:42:22;;;;;;;0.33;0.33;;;11.80;99.90;;;;;;5067705;28;20209;-84
2022/01/01 05:44:48;;;;;;;1.97;0.80;;;11.80;99.90;;;;;;5067437;28;20181;-83
2022/01/01 05:47:13;;;;;;;1.23;1.00;;;11.80;99.90;;;;;;5063695;28;20267;-83
2022/01/01 05:49:39;;;;;;;3.50;1.03;;;11.80;99.90;;;;;;5068265;28;20208;-83
2022/01/01 05:52:05;;;;;;;1.57;0.87;;;11.80;99.90;;;;;;5064840;28;20682;-83
2022/01/01 05:54:30;;;;;;;2.57;1.37;;;11.80;99.90;;;;;;5066336;28;20194;-84
2022/01/01 05:56:56;;;;;;;1.03;1.03;;;11.70;99.90;;;;;;5063868;28;20258;-83
2022/01/01 05:59:21;;;;;;;1.77;1.00;;;11.70;99.90;;;;;;5063608;28;20223;-83
2022/01/01 06:01:47;;;;;;;1.57;1.20;;;11.70;99.90;;;;;;5061634;28;20526;-84
2022/01/01 06:04:12;;;;;;;2.83;1.40;;;11.60;99.90;;;;;;5068120;28;20181;-83
2022/01/01 06:06:38;;;;;;;1.43;1.33;;;11.70;99.90;;;;;;5066166;28;20185;-83
2022/01/01 06:09:04;;;;;;;1.07;0.97;;;11.60;99.90;;;;;;5067899;28;21190;-84
2022/01/01 06:11:29;;;;;;;0.40;0.40;;;11.60;99.90;;;;;;5064981;28;20209;-84
2022/01/01 06:13:55;;;;;;;1.03;0.93;;;11.60;99.90;;;;;;5066979;28;20255;-83
2022/01/01 06:16:20;;;;;;;0.60;0.60;;;11.50;99.90;;;;;;5058737;28;20196;-83
2022/01/01 06:18:46;;;;;;;0.63;0.57;;;11.40;99.90;;;;;;5065251;28;20622;-84
2022/01/01 06:21:11;;;;;;;0.70;0.70;;;11.30;99.90;;;;;;5063591;28;20220;-83
2022/01/01 06:23:39;;;;;;;1.00;0.90;;;11.30;99.90;;;;;;5065223;28;20203;-83
2022/01/01 06:26:05;;;;;;;0.40;0.40;;;11.30;99.90;;;;;;5066744;28;20181;-82
2022/01/01 06:28:31;;;;;;;0.87;0.57;;;11.30;99.90;;;;;;5064934;28;20252;-83
2022/01/01 06:30:56;;;;;;;3.27;0.93;;;11.20;99.90;;;;;;5066040;28;20204;-82
2022/01/01 06:33:22;;;;;;;0.50;0.50;;;11.20;99.90;;;;;;5068091;28;20197;-82
2022/01/01 06:35:48;;;;;;;0.37;0.37;;;11.20;99.90;;;;;;5066396;28;20173;-83
2022/01/01 06:38:15;;;;;;;1.10;0.60;;;11.10;99.90;;;;;;5067798;28;20211;-82
2022/01/01 06:40:42;;;;;;;0.47;0.47;;;10.90;99.90;;;;;;5068367;28;20294;-83
2022/01/01 06:43:12;;;;;;;0.30;0.30;;;10.90;99.90;;;;;;5066272;28;20204;-82
2022/01/01 06:45:38;;;;;;;1.20;1.10;;;10.90;99.90;;;;;;5068146;28;20673;-82
2022/01/01 06:48:04;;;;;;;0.70;0.43;;;10.90;99.90;;;;;;5068494;28;20181;-83
2022/01/01 06:50:29;;;;;;;0.30;0.30;;;11.00;99.90;;;;;;5068374;28;20854;-83
2022/01/01 06:52:55;;;;;;;0.67;0.43;;;11.10;99.90;;;;;;5068262;28;20229;-82
2022/01/01 06:55:24;;;;;;;0.63;0.63;;;11.10;99.90;;;;;;5063707;28;20962;-81
2022/01/01 06:57:50;;;;;;;2.00;1.10;;;11.10;99.90;;;;;;5067116;28;20185;-81
2022/01/01 07:00:16;;;;;;;0.93;0.80;;;11.20;99.90;;;;;;5068957;28;20192;-81
2022/01/01 07:02:43;;;;;;;1.60;1.00;;;11.10;99.90;;;;;;5066607;28;20212;-81
2022/01/01 07:05:10;;;;;;;1.60;1.37;;;11.10;99.90;;;;;;5066856;28;20189;-81
2022/01/01 07:07:36;;;;;;;0.70;0.50;;;11.20;99.90;;;;;;5061091;28;20188;-80
2022/01/01 07:10:05;;;;;;;0.67;0.47;;;11.20;99.90;;;;;;5062490;28;20207;-84
2022/01/01 07:12:30;;;;;;;2.10;0.30;;;11.30;99.90;;;;;;5061599;28;20856;-84
2022/01/01 07:14:56;;;;;;;0.60;0.60;;;11.30;99.90;;;;;;5065088;28;20184;-84
2022/01/01 07:17:24;;;;;;;2.00;1.67;;;11.20;99.90;;;;;;5065304;28;20275;-83
2022/01/01 07:19:50;;;;;;;0.43;0.43;;;11.20;99.90;;;;;;5067365;28;20722;-84
2022/01/01 07:22:15;;;;;;;0.90;0.90;;;11.20;99.90;;;;;;5065573;28;20239;-83
2022/01/01 07:24:41;;;;;;;1.73;0.70;;;11.30;99.90;;;;;;5064698;28;20189;-84
2022/01/01 07:27:06;;;;;;;0.40;0.40;;;11.30;99.90;;;;;;5063724;28;20191;-84
2022/01/01 07:29:32;;;;;;;0.80;0.80;;;11.40;99.90;;;;;;5058925;28;20192;-83
2022/01/01 07:31:57;;;;;;;0.80;0.80;;;11.50;99.90;;;;;;5062872;28;20184;-83
2022/01/01 07:34:24;;;;;;;1.23;0.73;;;11.60;99.90;;;;;;5065711;28;20192;-84
2022/01/01 07:36:50;;;;;;;1.93;0.90;;;11.60;99.90;;;;;;5061264;28;20215;-83
2022/01/01 07:39:16;;;;;;;2.33;1.07;;;11.60;99.90;;;;;;5064267;28;20192;-84
2022/01/01 07:41:42;;;;;;;1.13;0.93;;;11.60;99.90;;;;;;5063755;28;20188;-84
2022/01/01 07:44:09;;;;;;;1.17;0.87;;;11.60;99.90;;;;;;5068364;28;20688;-83
2022/01/01 07:46:34;;;;;;;1.63;1.50;;;11.70;99.90;;;;;;5065971;28;20199;-83
2022/01/01 07:49:00;;;;;;;0.37;0.30;;;11.60;99.90;;;;;;5068573;28;20193;-83
2022/01/01 07:51:25;;;;;;;0.50;0.50;;;11.60;99.90;;;;;;5067414;28;20211;-84
2022/01/01 07:53:51;;;;;;;0.60;0.40;;;11.70;99.90;;;;;;5063285;28;20265;-85
2022/01/01 07:56:16;;;;;;;2.27;1.40;;;11.60;99.90;;;;;;5069207;28;20173;-84
2022/01/01 07:58:42;;;;;;;0.43;0.43;;;11.70;99.90;;;;;;5065948;28;20212;-83
2022/01/01 08:01:07;;;;;;;1.07;0.80;;;11.60;99.90;;;;;;5064631;28;20200;-85
2022/01/01 08:03:33;;;;;;;0.47;0.47;;;11.70;99.90;;;;;;5067136;28;20208;-83
2022/01/01 08:05:59;;;;;;;0.73;0.73;;;11.70;99.90;;;;;;5066961;28;20322;-83
2022/01/01 08:08:24;;;;;;;1.27;0.70;;;11.80;99.90;;;;;;5066296;28;20312;-84
2022/01/01 08:10:50;;;;;;;0.60;0.60;;;11.80;99.90;;;;;;5063202;28;20304;-84
2022/01/01 08:13:25;;;;;;;1.63;0.47;;;11.90;99.90;;;;;;5064434;28;20346;-84
2022/01/01 08:15:55;;;;;;;0.60;0.60;;;11.90;99.90;;;;;;5067645;28;20195;-83
2022/01/01 08:18:21;;;;;;;1.20;1.17;;;11.90;99.90;;;;;;5064601;28;20185;-83
2022/01/01 08:20:47;;;;;;;0.93;0.87;;;11.90;99.90;;;;;;5065411;28;20185;-84
2022/01/01 08:23:14;;;;;;;1.40;0.93;;;11.90;99.90;;;;;;5061459;28;20205;-82
2022/01/01 08:25:40;;;;;;;4.83;1.00;;;11.80;99.90;;;;;;5063769;28;20204;-82
2022/01/01 08:28:07;;;;;;;1.73;1.63;;;11.80;99.90;;;;;;5064831;28;20967;-81
2022/01/01 08:30:35;;;;;;;1.13;1.03;;;11.80;99.90;;;;;;5065633;28;20701;-81
2022/01/01 08:33:02;;;;;;;1.83;1.40;;;11.70;99.90;;;;;;5068587;28;20200;-82
2022/01/01 08:35:32;;;;;;;2.23;1.47;;;11.70;99.90;;;;;;5064014;28;20195;-81
2022/01/01 08:37:58;;;;;;;0.67;0.50;;;11.70;99.90;;;;;;5066071;28;20180;-82
2022/01/01 08:40:25;;;;;;;0.77;0.67;;;11.70;99.90;;;;;;5064634;28;20237;-84
2022/01/01 08:42:50;;;;;;;0.77;0.77;;;11.80;99.90;;;;;;5065016;28;20693;-81
2022/01/01 08:45:16;;;;;;;1.00;1.00;;;11.80;99.90;;;;;;5052283;28;20188;-81
2022/01/01 08:47:42;;;;;;;1.20;1.03;;;11.80;99.90;;;;;;5062429;28;20619;-81
2022/01/01 08:50:09;;;;;;;0.80;0.80;;;11.90;99.90;;;;;;5061229;28;20213;-81
2022/01/01 08:52:35;;;;;;;1.80;1.27;;;11.90;99.90;;;;;;5064267;28;20200;-81
2022/01/01 08:55:00;;;;;;;1.77;1.63;;;11.90;99.90;;;;;;5067219;28;20710;-81
2022/01/01 08:57:26;;;;;;;0.43;0.43;;;11.90;99.90;;;;;;5064214;28;20246;-81
2022/01/01 08:59:53;;;;;;;0.97;0.87;;;11.90;99.90;;;;;;5065323;28;20374;-81
2022/01/01 09:02:19;;;;;;;0.70;0.70;;;11.90;99.90;;;;;;5066190;28;20775;-81
2022/01/01 09:04:44;;;;;;;0.63;0.63;;;12.00;99.90;;;;;;5063737;28;20707;-81
2022/01/01 09:07:10;;;;;;;4.97;1.07;;;12.10;99.90;;;;;;5065045;28;20203;-80
2022/01/01 09:09:36;;;;;;;2.47;1.60;;;12.10;99.90;;;;;;5064852;28;20192;-81
2022/01/01 09:12:02;;;;;;;1.27;1.17;;;12.20;99.90;;;;;;5057646;28;20188;-81
2022/01/01 09:14:29;;;;;;;2.27;1.17;;;12.10;99.90;;;;;;5059970;28;20318;-80
2022/01/01 09:16:54;;;;;;;1.77;1.53;;;12.10;99.90;;;;;;5062147;28;21400;-81
2022/01/01 09:19:20;;;;;;;1.53;1.23;;;12.10;99.90;;;;;;5066958;28;20230;-80
2022/01/01 09:21:46;;;;;;;3.83;0.60;;;12.20;99.90;;;;;;5063596;28;20196;-81
2022/01/01 09:24:11;;;;;;;4.30;1.20;;;12.20;99.90;;;;;;5061657;28;20704;-80
2022/01/01 09:26:37;;;;;;;1.87;1.57;;;12.20;99.90;;;;;;5065914;28;20672;-80
2022/01/01 09:29:04;;;;;;;0.50;0.50;;;12.30;99.90;;;;;;5064121;28;20184;-81
2022/01/01 09:31:31;;;;;;;5.10;0.70;;;12.30;99.90;;;;;;5060441;28;20312;-81
2022/01/01 09:33:57;;;;;;;1.93;1.07;;;12.30;99.90;;;;;;5066068;28;20189;-80
2022/01/01 09:36:22;;;;;;;0.80;0.73;;;12.40;99.90;;;;;;5064112;28;20203;-80
2022/01/01 09:38:48;;;;;;;0.70;0.70;;;12.50;99.90;;;;;;5066345;28;20553;-80
2022/01/01 09:41:15;;;;;;;1.33;1.30;;;12.50;99.90;;;;;;5066332;28;20219;-81
2022/01/01 09:43:41;;;;;;;1.07;1.03;;;12.60;99.90;;;;;;5066886;28;20216;-80
2022/01/01 09:46:12;;;;;;;2.07;1.13;;;12.50;99.90;;;;;;5063138;28;20185;-80
2022/01/01 09:48:38;;;;;;;5.97;0.77;;;12.50;99.90;;;;;;5066768;28;20242;-80
2022/01/01 09:51:04;;;;;;;2.07;1.03;;;12.50;99.90;;;;;;5067128;28;20205;-81
2022/01/01 09:53:31;;;;;;;1.90;1.10;;;12.60;99.90;;;;;;5060974;28;20215;-81
2022/01/01 09:55:58;;;;;;;0.80;0.80;;;12.60;99.90;;;;;;5063653;28;20288;-81
2022/01/01 09:58:26;;;;;;;1.03;1.03;;;12.60;99.90;;;;;;5063560;28;20197;-80
2022/01/01 10:00:52;;;;;;;1.27;1.03;;;12.60;99.90;;;;;;5065153;28;20655;-80
2022/01/01 10:03:29;;;;;;;1.30;1.20;;;12.60;99.90;;;;;;5060509;28;20634;-80
2022/01/01 10:06:13;;;;;;;1.17;1.03;;;12.60;99.90;;;;;;5066156;28;20339;-80
2022/01/01 10:08:40;;;;;;;1.30;1.20;;;12.60;99.90;;;;;;5063757;28;20194;-81
2022/01/01 10:11:08;;;;;;;0.97;0.90;;;12.60;99.90;;;;;;5062939;28;20201;-81
2022/01/01 10:13:39;;;;;;;0.50;0.50;;;12.70;99.90;;;;;;5065405;28;20206;-81
2022/01/01 10:16:07;;;;;;;0.50;0.50;;;12.80;99.90;;;;;;5062627;28;20208;-81
2022/01/01 10:18:35;;;;;;;0.93;0.73;;;12.70;99.90;;;;;;5064279;28;20234;-81
2022/01/01 10:21:03;;;;;;;0.87;0.87;;;12.70;99.90;;;;;;5065109;28;20176;-81
2022/01/01 10:23:31;;;;;;;2.10;1.33;;;12.70;99.90;;;;;;5062644;28;20224;-81
2022/01/01 10:29:17;;;;;;;0.50;0.50;;;12.80;99.90;;;;;;5068169;28;20545;-81
2022/01/01 10:31:55;;;;;;;1.37;1.23;;;12.80;99.90;;;;;;5063659;28;20292;-81
2022/01/01 10:34:24;;;;;;;1.27;1.20;;;12.80;99.90;;;;;;5058827;28;20235;-83
2022/01/01 10:36:52;;;;;;;1.53;0.77;;;12.80;99.90;;;;;;5055938;28;20276;-81
2022/01/01 10:39:18;;;;;;;1.07;0.23;;;12.80;99.90;;;;;;5062696;28;20176;-81
2022/01/01 10:41:51;;;;;;;0.70;0.67;;;12.80;99.90;;;;;;5061779;28;20623;-81
2022/01/01 10:44:31;;;;;;;1.10;0.77;;;12.80;99.90;;;;;;5065309;28;20189;-81
2022/01/01 10:46:58;;;;;;;0.83;0.83;;;12.80;99.90;;;;;;5067301;28;20205;-81
2022/01/01 10:50:14;;;;;;;0.83;0.53;;;12.80;99.90;;;;;;5059670;28;20574;-81
2022/01/01 10:52:24;;;;;;;1.33;0.93;;;12.80;99.90;;;;;;5064340;28;20217;-81
2022/01/01 10:54:53;;;;;;;0.70;0.67;;;12.90;99.90;;;;;;5065648;28;20208;-81
2022/01/01 10:57:34;;;;;;;0.73;0.40;;;12.90;99.90;;;;;;5059535;28;20173;-81
2022/01/01 11:00:20;;;;;;;2.27;0.63;;;12.80;99.90;;;;;;5064325;28;20189;-81
2022/01/01 11:02:54;;;;;;;1.80;0.97;;;12.90;99.90;;;;;;5062486;28;20803;-81
2022/01/01 11:05:30;;;;;;;2.70;0.73;;;12.90;99.90;;;;;;5062409;28;20180;-81
2022/01/01 11:07:55;;;;;;;1.37;0.80;;;13.00;99.90;;;;;;5062757;28;20180;-81
2022/01/01 11:10:23;;;;;;;1.10;1.00;;;13.00;99.90;;;;;;5061970;28;20205;-81
2022/01/01 11:12:50;;;;;;;1.23;1.17;;;13.00;99.90;;;;;;5066148;28;20196;-81
2022/01/01 11:15:16;;;;;;;0.57;0.57;;;13.10;99.90;;;;;;5064713;28;20249;-81
2022/01/01 11:17:42;;;;;;;0.77;0.77;;;13.10;99.90;;;;;;5069417;28;20184;-81
2022/01/01 11:20:10;;;;;;;2.20;0.60;;;13.10;99.90;;;;;;5069528;28;20191;-81
2022/01/01 11:22:35;;;;;;;1.53;0.77;;;13.20;99.90;;;;;;5066049;28;20708;-81
2022/01/01 11:25:03;;;;;;;1.73;1.13;;;13.20;99.90;;;;;;5061579;28;20185;-81
2022/01/01 11:27:29;;;;;;;2.40;1.10;;;13.30;99.90;;;;;;5060639;28;20189;-82
2022/01/01 11:29:56;;;;;;;1.13;1.03;;;13.30;99.90;;;;;;5061636;28;20264;-80
2022/01/01 11:32:37;;;;;;;0.70;0.70;;;13.30;99.90;;;;;;5068960;28;20208;-81
2022/01/01 11:35:07;;;;;;;2.10;1.40;;;13.30;99.90;;;;;;5066512;28;20183;-82
2022/01/01 11:37:57;;;;;;;2.77;1.33;;;13.30;99.90;;;;;;5065737;28;20192;-80
2022/01/01 11:40:24;;;;;;;2.03;1.07;;;13.20;99.90;;;;;;5074950;28;20187;-80
2022/01/01 11:42:50;;;;;;;1.00;0.97;;;13.30;99.90;;;;;;5078080;28;20241;-81
2022/01/01 11:45:39;;;;;;;0.20;0.20;;;13.30;99.90;;;;;;5076917;28;20234;-81
2022/01/01 11:48:28;;;;;;;0.97;0.97;;;13.30;99.90;;;;;;5066087;28;20214;-81
2022/01/01 11:50:54;;;;;;;0.77;0.77;;;13.40;99.90;;;;;;5067929;28;20205;-81
2022/01/01 11:53:30;;;;;;;0.57;0.53;;;13.40;99.90;;;;;;5080666;28;20207;-81
2022/01/01 11:56:10;;;;;;;2.53;1.63;;;13.50;99.90;;;;;;5079514;28;20188;-81
2022/01/01 11:58:49;;;;;;;1.10;0.63;;;13.50;99.90;;;;;;5073217;28;20219;-80
2022/01/01 12:01:19;;;;;;;0.67;0.67;;;13.60;99.90;;;;;;5069834;28;20200;-81
2022/01/01 12:03:52;;;;;;;2.03;1.90;;;13.70;99.90;;;;;;5070791;28;20230;-81
2022/01/01 12:06:18;;;;;;;0.97;0.97;;;13.80;99.90;;;;;;5075466;28;20231;-81
2022/01/01 12:08:46;;;;;;;2.37;1.53;;;13.80;99.90;;;;;;5070500;28;20186;-80
2022/01/01 12:11:33;;;;;;;0.53;0.53;;;13.70;99.90;;;;;;5075146;28;20198;-80
2022/01/01 12:13:59;;;;;;;1.27;0.83;;;13.70;99.90;;;;;;5073269;28;20200;-81
2022/01/01 12:16:26;;;;;;;0.63;0.63;;;13.80;99.90;;;;;;5065830;28;20205;-81
2022/01/01 12:19:06;;;;;;;0.80;0.80;;;13.70;99.90;;;;;;5074505;28;20186;-82
2022/01/01 12:21:39;;;;;;;1.00;0.63;;;13.80;99.90;;;;;;5072476;28;20191;-83
2022/01/01 12:24:08;;;;;;;1.13;1.03;;;13.80;99.90;;;;;;5072467;28;20233;-80
2022/01/01 12:26:35;;;;;;;0.87;0.87;;;13.80;99.90;;;;;;5063768;28;20235;-82
2022/01/01 12:29:11;;;;;;;2.40;1.27;;;13.80;99.90;;;;;;5063738;28;20539;-82
2022/01/01 12:31:57;;;;;;;0.40;0.40;;;13.60;99.90;;;;;;5068399;28;20205;-83
2022/01/01 12:34:23;;;;;;;2.73;1.23;;;13.70;99.90;;;;;;5068012;28;20175;-82
2022/01/01 12:36:53;;;;;;;1.27;1.17;;;13.60;99.90;;;;;;5070479;28;20187;-84
2022/01/01 12:39:20;;;;;;;1.40;1.17;;;13.50;99.90;;;;;;5069980;28;20182;-83
2022/01/01 12:41:46;;;;;;;1.30;1.07;;;13.60;99.90;;;;;;5066083;28;20188;-82
2022/01/01 12:44:18;;;;;;;0.83;0.83;;;13.70;99.90;;;;;;5068413;28;20210;-83
2022/01/01 12:46:48;;;;;;;2.87;0.60;;;13.70;99.90;;;;;;5069989;28;20175;-83
2022/01/01 12:49:14;;;;;;;0.63;0.63;;;13.50;99.90;;;;;;5070256;28;20178;-83
2022/01/01 12:51:40;;;;;;;2.23;1.03;;;13.10;99.90;;;;;;5071342;28;20578;-83
2022/01/01 12:54:10;;;;;;;1.33;0.73;;;12.80;99.90;;;;;;5070818;28;20201;-83
2022/01/01 12:56:38;;;;;;;1.50;1.00;;;12.80;99.90;;;;;;5068702;28;20183;-83